sensor_id;sensor_type;location;lat;lon;timestamp;pressure;altitude;pressure_sealevel;temperature;humidity
60355;BME280;46198;51.464;-0.066;2022-10-16T00:01:59;100494.44;;;12.58;100.00
60355;BME280;46198;51.464;-0.066;2022-10-16T00:04:28;100511.00;;;12.56;100.00
60355;BME280;46198;51.464;-0.066;2022-10-16T00:06:57;100504.53;;;12.57;100.00
60355;BME280;46198;51.464;-0.066;2022-10-16T00:09:25;100504.16;;;12.54;100.00
60355;BME280;46198;51.464;-0.066;2022-10-16T00:11:54;100504.91;;;12.49;100.00
60355;BME280;46198;51.464;-0.066;2022-10-16T00:14:23;100508.56;;;12.55;100.00
60355;BME280;46198;51.464;-0.066;2022-10-16T00:16:52;100511.06;;;12.45;100.00
60355;BME280;46198;51.464;-0.066;2022-10-16T00:19:20;100498.03;;;12.47;100.00
60355;BME280;46198;51.464;-0.066;2022-10-16T00:25:01;100500.31;;;12.38;100.00
60355;BME280;46198;51.464;-0.066;2022-10-16T00:27:30;100506.91;;;12.42;100.00
60355;BME280;46198;51.464;-0.066;2022-10-16T00:30:00;100516.97;;;12.41;100.00
60355;BME280;46198;51.464;-0.066;2022-10-16T00:32:29;100513.06;;;12.37;100.00
60355;BME280;46198;51.464;-0.066;2022-10-16T00:34:57;100506.94;;;12.30;100.00
60355;BME280;46198;51.464;-0.066;2022-10-16T00:37:25;100516.16;;;12.29;100.00
60355;BME280;46198;51.464;-0.066;2022-10-16T00:39:56;100516.16;;;12.29;100.00
60355;BME280;46198;51.464;-0.066;2022-10-16T00:42:25;100509.66;;;12.30;100.00
60355;BME280;46198;51.464;-0.066;2022-10-16T00:44:55;100512.28;;;12.25;100.00
60355;BME280;46198;51.464;-0.066;2022-10-16T00:47:28;100511.09;;;12.21;100.00
60355;BME280;46198;51.464;-0.066;2022-10-16T00:50:07;100510.63;;;12.24;100.00
60355;BME280;46198;51.464;-0.066;2022-10-16T00:52:36;100524.69;;;12.21;100.00
60355;BME280;46198;51.464;-0.066;2022-10-16T00:55:08;100521.97;;;12.21;100.00
60355;BME280;46198;51.464;-0.066;2022-10-16T00:57:38;100522.09;;;12.26;100.00
60355;BME280;46198;51.464;-0.066;2022-10-16T01:00:10;100519.03;;;12.23;100.00
60355;BME280;46198;51.464;-0.066;2022-10-16T01:02:42;100513.34;;;12.24;100.00
60355;BME280;46198;51.464;-0.066;2022-10-16T01:05:10;100521.25;;;12.26;100.00
60355;BME280;46198;51.464;-0.066;2022-10-16T01:07:47;100523.66;;;12.22;100.00
60355;BME280;46198;51.464;-0.066;2022-10-16T01:10:26;100530.13;;;12.21;100.00
60355;BME280;46198;51.464;-0.066;2022-10-16T01:13:03;100529.56;;;12.19;100.00
60355;BME280;46198;51.464;-0.066;2022-10-16T01:15:37;100542.09;;;12.20;100.00
60355;BME280;46198;51.464;-0.066;2022-10-16T01:18:13;100538.56;;;12.19;100.00
60355;BME280;46198;51.464;-0.066;2022-10-16T01:20:47;100534.53;;;12.22;100.00
60355;BME280;46198;51.464;-0.066;2022-10-16T01:23:27;100533.34;;;12.18;100.00
60355;BME280;46198;51.464;-0.066;2022-10-16T01:29:26;100542.59;;;12.17;100.00
60355;BME280;46198;51.464;-0.066;2022-10-16T01:32:01;100539.97;;;12.22;100.00
60355;BME280;46198;51.464;-0.066;2022-10-16T01:34:37;100541.63;;;12.23;100.00
60355;BME280;46198;51.464;-0.066;2022-10-16T01:37:14;100542.09;;;12.20;100.00
60355;BME280;46198;51.464;-0.066;2022-10-16T01:39:45;100546.47;;;12.21;100.00
60355;BME280;46198;51.464;-0.066;2022-10-16T01:42:20;100553.47;;;12.17;100.00
60355;BME280;46198;51.464;-0.066;2022-10-16T01:44:53;100551.69;;;12.23;100.00
60355;BME280;46198;51.464;-0.066;2022-10-16T01:47:25;100553.94;;;12.26;100.00
60355;BME280;46198;51.464;-0.066;2022-10-16T01:49:56;100561.88;;;12.27;100.00
60355;BME280;46198;51.464;-0.066;2022-10-16T01:52:28;100554.28;;;12.29;100.00
60355;BME280;46198;51.464;-0.066;2022-10-16T01:54:58;100581.75;;;12.28;100.00
60355;BME280;46198;51.464;-0.066;2022-10-16T01:57:29;100562.81;;;12.33;100.00
60355;BME280;46198;51.464;-0.066;2022-10-16T02:00:03;100574.03;;;12.36;100.00
60355;BME280;46198;51.464;-0.066;2022-10-16T02:02:39;100578.41;;;12.37;100.00
60355;BME280;46198;51.464;-0.066;2022-10-16T02:05:14;100565.53;;;12.33;100.00
60355;BME280;46198;51.464;-0.066;2022-10-16T02:07:44;100566.97;;;12.35;100.00
60355;BME280;46198;51.464;-0.066;2022-10-16T02:10:12;100569.19;;;12.38;100.00
60355;BME280;46198;51.464;-0.066;2022-10-16T02:12:45;100569.09;;;12.33;100.00
60355;BME280;46198;51.464;-0.066;2022-10-16T02:15:18;100582.81;;;12.38;100.00
60355;BME280;46198;51.464;-0.066;2022-10-16T02:17:46;100573.44;;;12.34;100.00
60355;BME280;46198;51.464;-0.066;2022-10-16T02:20:15;100586.72;;;12.31;100.00
60355;BME280;46198;51.464;-0.066;2022-10-16T02:22:46;100583.88;;;12.26;100.00
60355;BME280;46198;51.464;-0.066;2022-10-16T02:28:44;100580.94;;;12.27;100.00
60355;BME280;46198;51.464;-0.066;2022-10-16T02:31:18;100592.75;;;12.21;100.00
60355;BME280;46198;51.464;-0.066;2022-10-16T02:33:50;100607.22;;;12.22;100.00
60355;BME280;46198;51.464;-0.066;2022-10-16T02:36:21;100613.34;;;12.17;100.00
60355;BME280;46198;51.464;-0.066;2022-10-16T02:38:50;100611.31;;;12.12;100.00
60355;BME280;46198;51.464;-0.066;2022-10-16T02:41:20;100607.19;;;12.10;100.00
60355;BME280;46198;51.464;-0.066;2022-10-16T02:43:49;100610.63;;;12.05;100.00
60355;BME280;46198;51.464;-0.066;2022-10-16T02:46:19;100608.72;;;12.06;100.00
60355;BME280;46198;51.464;-0.066;2022-10-16T02:48:47;100609.78;;;12.05;100.00
60355;BME280;46198;51.464;-0.066;2022-10-16T02:51:16;100602.34;;;12.00;100.00
60355;BME280;46198;51.464;-0.066;2022-10-16T02:53:44;100613.22;;;12.00;100.00
60355;BME280;46198;51.464;-0.066;2022-10-16T02:56:13;100625.41;;;11.97;100.00
60355;BME280;46198;51.464;-0.066;2022-10-16T02:58:41;100615.44;;;11.91;100.00
60355;BME280;46198;51.464;-0.066;2022-10-16T03:01:10;100631.19;;;11.89;100.00
60355;BME280;46198;51.464;-0.066;2022-10-16T03:03:41;100629.13;;;11.85;100.00
60355;BME280;46198;51.464;-0.066;2022-10-16T03:06:09;100641.28;;;11.82;100.00
60355;BME280;46198;51.464;-0.066;2022-10-16T03:08:38;100636.69;;;11.83;100.00
60355;BME280;46198;51.464;-0.066;2022-10-16T03:11:07;100634.69;;;11.78;100.00
60355;BME280;46198;51.464;-0.066;2022-10-16T03:13:36;100640.81;;;11.73;100.00
60355;BME280;46198;51.464;-0.066;2022-10-16T03:16:04;100645.03;;;11.69;100.00
60355;BME280;46198;51.464;-0.066;2022-10-16T03:18:33;100643.75;;;11.72;100.00
60355;BME280;46198;51.464;-0.066;2022-10-16T03:21:03;100633.34;;;11.69;100.00
60355;BME280;46198;51.464;-0.066;2022-10-16T03:26:42;100655.09;;;11.69;100.00
60355;BME280;46198;51.464;-0.066;2022-10-16T03:29:10;100653.91;;;11.65;100.00
60355;BME280;46198;51.464;-0.066;2022-10-16T03:31:39;100653.16;;;11.58;100.00
60355;BME280;46198;51.464;-0.066;2022-10-16T03:34:08;100658.13;;;11.61;100.00
60355;BME280;46198;51.464;-0.066;2022-10-16T03:36:38;100656.50;;;11.60;100.00
60355;BME280;46198;51.464;-0.066;2022-10-16T03:39:06;100657.78;;;11.57;100.00
60355;BME280;46198;51.464;-0.066;2022-10-16T03:41:35;100661.78;;;11.54;100.00
60355;BME280;46198;51.464;-0.066;2022-10-16T03:44:04;100662.47;;;11.50;100.00
60355;BME280;46198;51.464;-0.066;2022-10-16T03:46:32;100665.44;;;11.48;100.00
60355;BME280;46198;51.464;-0.066;2022-10-16T03:49:01;100669.19;;;11.47;100.00
60355;BME280;46198;51.464;-0.066;2022-10-16T03:51:35;100662.13;;;11.46;100.00
60355;BME280;46198;51.464;-0.066;2022-10-16T03:54:04;100665.88;;;11.45;100.00
60355;BME280;46198;51.464;-0.066;2022-10-16T03:56:33;100666.47;;;11.47;100.00
60355;BME280;46198;51.464;-0.066;2022-10-16T03:59:01;100663.75;;;11.47;100.00
60355;BME280;46198;51.464;-0.066;2022-10-16T04:01:30;100671.69;;;11.49;100.00
60355;BME280;46198;51.464;-0.066;2022-10-16T04:04:00;100674.28;;;11.44;100.00
60355;BME280;46198;51.464;-0.066;2022-10-16T04:06:29;100687.50;;;11.40;100.00
60355;BME280;46198;51.464;-0.066;2022-10-16T04:08:58;100690.22;;;11.40;100.00
60355;BME280;46198;51.464;-0.066;2022-10-16T04:11:27;100682.19;;;11.45;100.00
60355;BME280;46198;51.464;-0.066;2022-10-16T04:13:56;100691.41;;;11.44;100.00
60355;BME280;46198;51.464;-0.066;2022-10-16T04:16:24;100692.69;;;11.42;100.00
60355;BME280;46198;51.464;-0.066;2022-10-16T04:18:53;100696.84;;;11.44;100.00
60355;BME280;46198;51.464;-0.066;2022-10-16T04:21:21;100700.25;;;11.40;100.00
60355;BME280;46198;51.464;-0.066;2022-10-16T04:23:50;100699.41;;;11.39;100.00
60355;BME280;46198;51.464;-0.066;2022-10-16T04:26:18;100706.97;;;11.37;100.00
60355;BME280;46198;51.464;-0.066;2022-10-16T04:28:48;100716.81;;;11.38;100.00
60355;BME280;46198;51.464;-0.066;2022-10-16T04:31:17;100727.44;;;11.40;100.00
60355;BME280;46198;51.464;-0.066;2022-10-16T04:33:45;100740.44;;;11.38;100.00
60355;BME280;46198;51.464;-0.066;2022-10-16T04:36:14;100745.88;;;11.38;100.00
60355;BME280;46198;51.464;-0.066;2022-10-16T04:38:43;100750.47;;;11.37;100.00
60355;BME280;46198;51.464;-0.066;2022-10-16T04:41:11;100753.88;;;11.32;100.00
60355;BME280;46198;51.464;-0.066;2022-10-16T04:43:40;100755.16;;;11.30;100.00
60355;BME280;46198;51.464;-0.066;2022-10-16T04:46:10;100769.38;;;11.32;100.00
60355;BME280;46198;51.464;-0.066;2022-10-16T04:48:38;100769.41;;;11.25;100.00
60355;BME280;46198;51.464;-0.066;2022-10-16T04:51:07;100778.56;;;11.31;100.00
60355;BME280;46198;51.464;-0.066;2022-10-16T04:53:36;100791.53;;;11.29;100.00
60355;BME280;46198;51.464;-0.066;2022-10-16T04:56:05;100798.41;;;11.31;100.00
60355;BME280;46198;51.464;-0.066;2022-10-16T04:58:33;100796.31;;;11.34;100.00
60355;BME280;46198;51.464;-0.066;2022-10-16T05:01:07;100801.38;;;11.30;100.00
60355;BME280;46198;51.464;-0.066;2022-10-16T05:03:45;100792.00;;;11.26;100.00
60355;BME280;46198;51.464;-0.066;2022-10-16T05:06:14;100802.81;;;11.32;100.00
60355;BME280;46198;51.464;-0.066;2022-10-16T05:08:42;100812.84;;;11.32;100.00
60355;BME280;46198;51.464;-0.066;2022-10-16T05:11:11;100805.53;;;11.32;100.00
60355;BME280;46198;51.464;-0.066;2022-10-16T05:13:39;100818.28;;;11.32;100.00
60355;BME280;46198;51.464;-0.066;2022-10-16T05:16:07;100814.81;;;11.25;100.00
60355;BME280;46198;51.464;-0.066;2022-10-16T05:18:36;100828.41;;;11.25;100.00
60355;BME280;46198;51.464;-0.066;2022-10-16T05:21:06;100838.03;;;11.21;100.00
60355;BME280;46198;51.464;-0.066;2022-10-16T05:23:36;100838.03;;;11.21;100.00
60355;BME280;46198;51.464;-0.066;2022-10-16T05:26:04;100835.56;;;11.19;100.00
60355;BME280;46198;51.464;-0.066;2022-10-16T05:28:33;100838.94;;;11.15;100.00
60355;BME280;46198;51.464;-0.066;2022-10-16T05:31:04;100851.91;;;11.13;100.00
60355;BME280;46198;51.464;-0.066;2022-10-16T05:33:33;100856.69;;;11.17;100.00
60355;BME280;46198;51.464;-0.066;2022-10-16T05:36:02;100858.63;;;11.10;100.00
60355;BME280;46198;51.464;-0.066;2022-10-16T05:38:32;100863.22;;;11.09;100.00
60355;BME280;46198;51.464;-0.066;2022-10-16T05:41:02;100863.91;;;11.05;100.00
60355;BME280;46198;51.464;-0.066;2022-10-16T05:43:31;100875.63;;;11.05;100.00
60355;BME280;46198;51.464;-0.066;2022-10-16T05:46:02;100876.44;;;11.06;100.00
60355;BME280;46198;51.464;-0.066;2022-10-16T05:48:31;100870.84;;;11.01;100.00
60355;BME280;46198;51.464;-0.066;2022-10-16T05:51:01;100882.97;;;10.98;100.00
60355;BME280;46198;51.464;-0.066;2022-10-16T05:53:33;100880.25;;;10.98;100.00
60355;BME280;46198;51.464;-0.066;2022-10-16T05:56:03;100885.06;;;10.96;100.00
60355;BME280;46198;51.464;-0.066;2022-10-16T05:58:33;100885.94;;;10.97;100.00
60355;BME280;46198;51.464;-0.066;2022-10-16T06:01:06;100891.31;;;11.03;100.00
60355;BME280;46198;51.464;-0.066;2022-10-16T06:03:35;100902.44;;;10.95;100.00
60355;BME280;46198;51.464;-0.066;2022-10-16T06:06:08;100894.72;;;10.92;100.00
60355;BME280;46198;51.464;-0.066;2022-10-16T06:08:40;100905.63;;;10.85;100.00
60355;BME280;46198;51.464;-0.066;2022-10-16T06:11:10;100906.03;;;10.89;100.00
60355;BME280;46198;51.464;-0.066;2022-10-16T06:13:39;100917.34;;;10.86;100.00
60355;BME280;46198;51.464;-0.066;2022-10-16T06:16:10;100919.84;;;10.87;100.00
60355;BME280;46198;51.464;-0.066;2022-10-16T06:18:38;100920.50;;;10.83;100.00
60355;BME280;46198;51.464;-0.066;2022-10-16T06:21:08;100915.28;;;10.81;100.00
60355;BME280;46198;51.464;-0.066;2022-10-16T06:23:37;100915.09;;;10.83;100.00
60355;BME280;46198;51.464;-0.066;2022-10-16T06:26:09;100918.84;;;10.82;100.00
60355;BME280;46198;51.464;-0.066;2022-10-16T06:28:38;100923.88;;;10.78;100.00
60355;BME280;46198;51.464;-0.066;2022-10-16T06:31:09;100929.25;;;10.85;100.00
60355;BME280;46198;51.464;-0.066;2022-10-16T06:33:38;100937.22;;;10.80;100.00
60355;BME280;46198;51.464;-0.066;2022-10-16T06:36:09;100938.28;;;10.79;100.00
60355;BME280;46198;51.464;-0.066;2022-10-16T06:38:38;100932.69;;;10.74;100.00
60355;BME280;46198;51.464;-0.066;2022-10-16T06:41:11;100947.09;;;10.74;100.00
60355;BME280;46198;51.464;-0.066;2022-10-16T06:43:41;100943.53;;;10.74;100.00
60355;BME280;46198;51.464;-0.066;2022-10-16T06:46:12;100945.44;;;10.73;100.00
60355;BME280;46198;51.464;-0.066;2022-10-16T06:48:42;100942.91;;;10.72;100.00
60355;BME280;46198;51.464;-0.066;2022-10-16T06:51:12;100948.34;;;10.72;100.00
60355;BME280;46198;51.464;-0.066;2022-10-16T06:53:43;100953.38;;;10.68;100.00
60355;BME280;46198;51.464;-0.066;2022-10-16T06:56:32;100952.75;;;10.73;100.00
60355;BME280;46198;51.464;-0.066;2022-10-16T06:59:01;100955.03;;;10.76;100.00
60355;BME280;46198;51.464;-0.066;2022-10-16T07:01:31;100965.44;;;10.79;100.00
60355;BME280;46198;51.464;-0.066;2022-10-16T07:04:00;100974.66;;;10.78;100.00
60355;BME280;46198;51.464;-0.066;2022-10-16T07:06:31;100980.91;;;10.78;100.00
60355;BME280;46198;51.464;-0.066;2022-10-16T07:09:02;100985.09;;;10.81;100.00
60355;BME280;46198;51.464;-0.066;2022-10-16T07:11:33;100988.00;;;10.79;100.00
60355;BME280;46198;51.464;-0.066;2022-10-16T07:14:02;100998.44;;;10.82;100.00
60355;BME280;46198;51.464;-0.066;2022-10-16T07:16:32;100993.00;;;10.82;100.00
60355;BME280;46198;51.464;-0.066;2022-10-16T07:19:02;101003.84;;;10.82;100.00
60355;BME280;46198;51.464;-0.066;2022-10-16T07:21:32;101002.59;;;10.85;100.00
60355;BME280;46198;51.464;-0.066;2022-10-16T07:24:05;101016.81;;;10.87;100.00
60355;BME280;46198;51.464;-0.066;2022-10-16T07:26:36;101016.38;;;10.90;100.00
60355;BME280;46198;51.464;-0.066;2022-10-16T07:29:06;101022.19;;;10.94;100.00
60355;BME280;46198;51.464;-0.066;2022-10-16T07:31:35;101023.44;;;10.98;100.00
60355;BME280;46198;51.464;-0.066;2022-10-16T07:34:05;101024.88;;;11.00;100.00
60355;BME280;46198;51.464;-0.066;2022-10-16T07:36:33;101027.53;;;11.07;100.00
60355;BME280;46198;51.464;-0.066;2022-10-16T07:39:03;101027.09;;;11.10;100.00
60355;BME280;46198;51.464;-0.066;2022-10-16T07:41:32;101034.00;;;11.13;100.00
60355;BME280;46198;51.464;-0.066;2022-10-16T07:44:05;101049.44;;;11.19;100.00
60355;BME280;46198;51.464;-0.066;2022-10-16T07:46:35;101046.28;;;11.22;100.00
60355;BME280;46198;51.464;-0.066;2022-10-16T07:49:03;101041.69;;;11.22;100.00
60355;BME280;46198;51.464;-0.066;2022-10-16T07:51:35;101047.69;;;11.31;100.00
60355;BME280;46198;51.464;-0.066;2022-10-16T07:54:05;101055.56;;;11.39;100.00
60355;BME280;46198;51.464;-0.066;2022-10-16T07:56:34;101041.31;;;11.44;100.00
60355;BME280;46198;51.464;-0.066;2022-10-16T07:59:08;101059.09;;;11.46;100.00
60355;BME280;46198;51.464;-0.066;2022-10-16T08:01:37;101049.59;;;11.56;99.60
60355;BME280;46198;51.464;-0.066;2022-10-16T08:04:06;101047.88;;;11.61;99.38
60355;BME280;46198;51.464;-0.066;2022-10-16T08:06:36;101064.34;;;11.66;99.14
60355;BME280;46198;51.464;-0.066;2022-10-16T08:09:05;101062.25;;;11.68;98.79
60355;BME280;46198;51.464;-0.066;2022-10-16T08:11:34;101070.59;;;11.73;99.25
60355;BME280;46198;51.464;-0.066;2022-10-16T08:14:03;101069.50;;;11.81;98.13
60355;BME280;46198;51.464;-0.066;2022-10-16T08:16:33;101080.56;;;11.86;96.43
60355;BME280;46198;51.464;-0.066;2022-10-16T08:19:01;101085.13;;;11.92;97.41
60355;BME280;46198;51.464;-0.066;2022-10-16T08:21:30;101096.75;;;12.00;97.81
60355;BME280;46198;51.464;-0.066;2022-10-16T08:24:01;101101.34;;;12.06;97.30
60355;BME280;46198;51.464;-0.066;2022-10-16T08:26:29;101098.78;;;12.11;96.38
60355;BME280;46198;51.464;-0.066;2022-10-16T08:28:58;101100.97;;;12.20;95.27
60355;BME280;46198;51.464;-0.066;2022-10-16T08:31:27;101104.94;;;12.25;95.84
60355;BME280;46198;51.464;-0.066;2022-10-16T08:33:57;101106.53;;;12.32;93.29
60355;BME280;46198;51.464;-0.066;2022-10-16T08:36:25;101108.97;;;12.40;92.46
60355;BME280;46198;51.464;-0.066;2022-10-16T08:38:54;101117.66;;;12.49;94.07
60355;BME280;46198;51.464;-0.066;2022-10-16T08:41:36;101118.88;;;12.53;92.31
60355;BME280;46198;51.464;-0.066;2022-10-16T08:44:27;101123.19;;;12.61;92.41
60355;BME280;46198;51.464;-0.066;2022-10-16T08:47:02;101131.31;;;12.68;91.31
60355;BME280;46198;51.464;-0.066;2022-10-16T08:49:37;101129.31;;;12.75;91.68
60355;BME280;46198;51.464;-0.066;2022-10-16T08:52:11;101124.84;;;12.80;90.78
60355;BME280;46198;51.464;-0.066;2022-10-16T08:54:44;101134.41;;;12.90;89.18
60355;BME280;46198;51.464;-0.066;2022-10-16T08:57:19;101135.84;;;12.92;91.29
60355;BME280;46198;51.464;-0.066;2022-10-16T08:59:51;101130.28;;;12.99;89.69
60355;BME280;46198;51.464;-0.066;2022-10-16T09:02:26;101137.56;;;13.05;89.01
60355;BME280;46198;51.464;-0.066;2022-10-16T09:05:03;101136.66;;;13.11;90.99
60355;BME280;46198;51.464;-0.066;2022-10-16T09:07:46;101142.63;;;13.20;92.42
60355;BME280;46198;51.464;-0.066;2022-10-16T09:10:27;101144.88;;;13.23;91.73
60355;BME280;46198;51.464;-0.066;2022-10-16T09:13:03;101152.41;;;13.27;89.62
60355;BME280;46198;51.464;-0.066;2022-10-16T09:15:40;101159.66;;;13.34;89.91
60355;BME280;46198;51.464;-0.066;2022-10-16T09:18:18;101155.19;;;13.39;89.87
60355;BME280;46198;51.464;-0.066;2022-10-16T09:21:00;101153.28;;;13.40;88.88
60355;BME280;46198;51.464;-0.066;2022-10-16T09:23:35;101158.41;;;13.48;86.97
60355;BME280;46198;51.464;-0.066;2022-10-16T09:26:05;101161.75;;;13.50;86.88
60355;BME280;46198;51.464;-0.066;2022-10-16T09:28:38;101166.75;;;13.53;86.15
60355;BME280;46198;51.464;-0.066;2022-10-16T09:31:13;101171.00;;;13.49;83.96
60355;BME280;46198;51.464;-0.066;2022-10-16T09:33:44;101172.09;;;13.60;89.13
60355;BME280;46198;51.464;-0.066;2022-10-16T09:36:15;101170.94;;;13.67;84.22
60355;BME280;46198;51.464;-0.066;2022-10-16T09:38:43;101163.84;;;13.78;87.25
60355;BME280;46198;51.464;-0.066;2022-10-16T09:41:16;101161.88;;;13.97;84.40
60355;BME280;46198;51.464;-0.066;2022-10-16T09:43:49;101152.09;;;14.19;89.25
60355;BME280;46198;51.464;-0.066;2022-10-16T09:46:25;101166.69;;;14.37;85.75
60355;BME280;46198;51.464;-0.066;2022-10-16T09:48:56;101161.72;;;14.57;85.94
60355;BME280;46198;51.464;-0.066;2022-10-16T09:51:28;101160.06;;;14.68;80.81
60355;BME280;46198;51.464;-0.066;2022-10-16T09:54:00;101163.00;;;14.78;81.09
60355;BME280;46198;51.464;-0.066;2022-10-16T09:56:30;101170.50;;;14.83;76.85
60355;BME280;46198;51.464;-0.066;2022-10-16T09:59:08;101167.44;;;14.79;84.39
60355;BME280;46198;51.464;-0.066;2022-10-16T10:01:39;101172.88;;;14.91;80.80
60355;BME280;46198;51.464;-0.066;2022-10-16T10:04:10;101177.09;;;15.11;83.63
60355;BME280;46198;51.464;-0.066;2022-10-16T10:06:43;101179.94;;;15.16;75.73
60355;BME280;46198;51.464;-0.066;2022-10-16T10:09:18;101190.63;;;15.29;81.21
60355;BME280;46198;51.464;-0.066;2022-10-16T10:11:50;101189.16;;;15.38;77.42
60355;BME280;46198;51.464;-0.066;2022-10-16T10:14:22;101185.25;;;15.34;76.17
60355;BME280;46198;51.464;-0.066;2022-10-16T10:16:52;101199.75;;;15.35;72.36
60355;BME280;46198;51.464;-0.066;2022-10-16T10:19:23;101191.78;;;15.33;75.59
60355;BME280;46198;51.464;-0.066;2022-10-16T10:21:59;101195.31;;;15.45;73.02
60355;BME280;46198;51.464;-0.066;2022-10-16T10:24:30;101196.66;;;15.43;77.13
60355;BME280;46198;51.464;-0.066;2022-10-16T10:31:47;101189.69;;;15.23;71.54
60355;BME280;46198;51.464;-0.066;2022-10-16T10:34:30;101189.69;;;15.12;70.11
60355;BME280;46198;51.464;-0.066;2022-10-16T10:37:15;101194.00;;;15.07;70.73
60355;BME280;46198;51.464;-0.066;2022-10-16T10:39:57;101189.13;;;15.10;73.66
60355;BME280;46198;51.464;-0.066;2022-10-16T10:42:35;101190.41;;;15.19;71.72
60355;BME280;46198;51.464;-0.066;2022-10-16T10:45:13;101186.47;;;15.26;75.05
60355;BME280;46198;51.464;-0.066;2022-10-16T10:47:55;101190.50;;;15.24;71.58
60355;BME280;46198;51.464;-0.066;2022-10-16T10:50:30;101190.75;;;15.22;71.12
60355;BME280;46198;51.464;-0.066;2022-10-16T10:53:11;101187.66;;;15.19;73.91
60355;BME280;46198;51.464;-0.066;2022-10-16T10:55:52;101190.28;;;15.25;68.66
60355;BME280;46198;51.464;-0.066;2022-10-16T10:58:35;101188.13;;;15.27;71.04
60355;BME280;46198;51.464;-0.066;2022-10-16T11:01:14;101185.16;;;15.29;74.89
60355;BME280;46198;51.464;-0.066;2022-10-16T11:03:58;101186.53;;;15.43;71.57
60355;BME280;46198;51.464;-0.066;2022-10-16T11:06:40;101177.25;;;15.44;67.94
60355;BME280;46198;51.464;-0.066;2022-10-16T11:09:15;101171.78;;;15.44;69.64
60355;BME280;46198;51.464;-0.066;2022-10-16T11:11:49;101173.28;;;15.52;68.18
60355;BME280;46198;51.464;-0.066;2022-10-16T11:14:23;101164.84;;;15.54;68.19
60355;BME280;46198;51.464;-0.066;2022-10-16T11:16:58;101173.75;;;15.61;69.41
60355;BME280;46198;51.464;-0.066;2022-10-16T11:19:33;101172.88;;;15.72;72.65
60355;BME280;46198;51.464;-0.066;2022-10-16T11:22:11;101180.34;;;15.77;67.68
60355;BME280;46198;51.464;-0.066;2022-10-16T11:24:47;101171.56;;;15.75;69.49
60355;BME280;46198;51.464;-0.066;2022-10-16T11:27:23;101169.97;;;15.79;73.72
60355;BME280;46198;51.464;-0.066;2022-10-16T11:30:01;101171.66;;;15.68;67.18
60355;BME280;46198;51.464;-0.066;2022-10-16T11:32:34;101165.59;;;15.66;73.08
60355;BME280;46198;51.464;-0.066;2022-10-16T11:35:17;101166.00;;;15.86;72.11
60355;BME280;46198;51.464;-0.066;2022-10-16T11:37:51;101157.81;;;16.03;65.72
60355;BME280;46198;51.464;-0.066;2022-10-16T11:40:27;101160.81;;;16.02;66.23
60355;BME280;46198;51.464;-0.066;2022-10-16T11:43:01;101152.16;;;16.10;68.04
60355;BME280;46198;51.464;-0.066;2022-10-16T11:45:36;101154.81;;;16.05;66.23
60355;BME280;46198;51.464;-0.066;2022-10-16T11:48:15;101158.81;;;16.14;64.55
60355;BME280;46198;51.464;-0.066;2022-10-16T11:51:05;101161.13;;;16.22;66.84
60355;BME280;46198;51.464;-0.066;2022-10-16T11:53:44;101166.78;;;16.32;69.59
60355;BME280;46198;51.464;-0.066;2022-10-16T11:56:17;101165.13;;;16.31;64.73
60355;BME280;46198;51.464;-0.066;2022-10-16T11:58:54;101162.78;;;16.40;64.25
60355;BME280;46198;51.464;-0.066;2022-10-16T12:01:31;101161.28;;;16.32;65.59
60355;BME280;46198;51.464;-0.066;2022-10-16T12:04:12;101162.94;;;16.33;64.09
60355;BME280;46198;51.464;-0.066;2022-10-16T12:06:43;101164.75;;;16.45;64.21
60355;BME280;46198;51.464;-0.066;2022-10-16T12:09:15;101157.19;;;16.52;65.45
60355;BME280;46198;51.464;-0.066;2022-10-16T12:11:49;101161.31;;;16.71;63.06
60355;BME280;46198;51.464;-0.066;2022-10-16T12:14:34;101161.38;;;16.76;64.82
60355;BME280;46198;51.464;-0.066;2022-10-16T12:17:26;101153.19;;;16.59;65.59
60355;BME280;46198;51.464;-0.066;2022-10-16T12:19:58;101151.09;;;16.83;68.19
60355;BME280;46198;51.464;-0.066;2022-10-16T12:22:29;101143.78;;;16.89;62.93
60355;BME280;46198;51.464;-0.066;2022-10-16T12:25:21;101155.44;;;17.01;63.48
60355;BME280;46198;51.464;-0.066;2022-10-16T12:27:57;101140.28;;;16.94;66.87
60355;BME280;46198;51.464;-0.066;2022-10-16T12:30:28;101149.41;;;16.99;68.11
60355;BME280;46198;51.464;-0.066;2022-10-16T12:33:04;101148.22;;;16.95;65.39
60355;BME280;46198;51.464;-0.066;2022-10-16T12:35:35;101144.72;;;17.00;66.50
60355;BME280;46198;51.464;-0.066;2022-10-16T12:38:16;101131.06;;;17.05;67.61
60355;BME280;46198;51.464;-0.066;2022-10-16T12:40:53;101135.03;;;17.14;67.51
60355;BME280;46198;51.464;-0.066;2022-10-16T12:43:27;101129.09;;;17.00;64.35
60355;BME280;46198;51.464;-0.066;2022-10-16T12:46:00;101135.66;;;16.77;62.96
60355;BME280;46198;51.464;-0.066;2022-10-16T12:48:31;101133.03;;;16.88;65.04
60355;BME280;46198;51.464;-0.066;2022-10-16T12:51:23;101126.81;;;16.75;64.65
60355;BME280;46198;51.464;-0.066;2022-10-16T12:54:00;101139.13;;;16.73;66.22
60355;BME280;46198;51.464;-0.066;2022-10-16T12:56:44;101128.84;;;16.63;65.66
60355;BME280;46198;51.464;-0.066;2022-10-16T12:59:24;101136.00;;;16.64;67.07
60355;BME280;46198;51.464;-0.066;2022-10-16T13:02:13;101130.53;;;16.64;67.59
60355;BME280;46198;51.464;-0.066;2022-10-16T13:05:02;101127.50;;;16.66;65.66
60355;BME280;46198;51.464;-0.066;2022-10-16T13:07:43;101133.81;;;16.66;67.14
60355;BME280;46198;51.464;-0.066;2022-10-16T13:10:20;101133.50;;;16.62;68.86
60355;BME280;46198;51.464;-0.066;2022-10-16T13:13:10;101130.38;;;16.54;67.87
60355;BME280;46198;51.464;-0.066;2022-10-16T13:16:02;101127.03;;;16.52;67.46
60355;BME280;46198;51.464;-0.066;2022-10-16T13:18:42;101138.59;;;16.54;68.12